sensor_id;sensor_type;location;lat;lon;timestamp;temperature;humidity
30520;DHT22;17300;50.374;8.006;2023-06-14T00:01:46;19.50;40.00
30520;DHT22;17300;50.374;8.006;2023-06-14T00:04:14;19.50;40.20
30520;DHT22;17300;50.374;8.006;2023-06-14T00:06:42;19.50;40.30
30520;DHT22;17300;50.374;8.006;2023-06-14T00:09:10;19.50;40.40
30520;DHT22;17300;50.374;8.006;2023-06-14T00:11:39;19.40;40.50
30520;DHT22;17300;50.374;8.006;2023-06-14T00:14:06;19.40;40.60
30520;DHT22;17300;50.374;8.006;2023-06-14T00:16:32;19.40;40.60
30520;DHT22;17300;50.374;8.006;2023-06-14T00:19:00;19.40;40.70
30520;DHT22;17300;50.374;8.006;2023-06-14T00:21:28;19.30;40.70
30520;DHT22;17300;50.374;8.006;2023-06-14T00:23:55;19.30;40.80
30520;DHT22;17300;50.374;8.006;2023-06-14T00:26:22;19.30;40.80
30520;DHT22;17300;50.374;8.006;2023-06-14T00:28:50;19.30;41.00
30520;DHT22;17300;50.374;8.006;2023-06-14T00:31:16;19.20;41.10
30520;DHT22;17300;50.374;8.006;2023-06-14T00:33:43;19.20;41.10
30520;DHT22;17300;50.374;8.006;2023-06-14T00:36:10;19.20;41.20
30520;DHT22;17300;50.374;8.006;2023-06-14T00:38:37;19.10;41.20
30520;DHT22;17300;50.374;8.006;2023-06-14T00:41:03;19.10;41.30
30520;DHT22;17300;50.374;8.006;2023-06-14T00:43:30;19.10;41.30
30520;DHT22;17300;50.374;8.006;2023-06-14T00:45:58;19.10;41.30
30520;DHT22;17300;50.374;8.006;2023-06-14T00:48:25;19.00;41.50
30520;DHT22;17300;50.374;8.006;2023-06-14T00:50:52;19.00;41.40
30520;DHT22;17300;50.374;8.006;2023-06-14T00:53:19;18.90;41.40
30520;DHT22;17300;50.374;8.006;2023-06-14T00:55:48;18.90;41.50
30520;DHT22;17300;50.374;8.006;2023-06-14T00:58:15;18.90;41.60
30520;DHT22;17300;50.374;8.006;2023-06-14T01:00:42;18.80;41.60
30520;DHT22;17300;50.374;8.006;2023-06-14T01:03:11;18.80;41.70
30520;DHT22;17300;50.374;8.006;2023-06-14T01:05:38;18.70;41.80
30520;DHT22;17300;50.374;8.006;2023-06-14T01:08:18;18.70;41.90
30520;DHT22;17300;50.374;8.006;2023-06-14T01:10:53;18.60;42.50
30520;DHT22;17300;50.374;8.006;2023-06-14T01:13:29;18.60;42.20
30520;DHT22;17300;50.374;8.006;2023-06-14T01:15:59;18.60;42.50
30520;DHT22;17300;50.374;8.006;2023-06-14T01:18:28;18.50;42.00
30520;DHT22;17300;50.374;8.006;2023-06-14T01:20:55;18.50;42.30
30520;DHT22;17300;50.374;8.006;2023-06-14T01:23:24;18.40;42.20
30520;DHT22;17300;50.374;8.006;2023-06-14T01:25:58;18.40;42.30
30520;DHT22;17300;50.374;8.006;2023-06-14T01:28:27;18.40;42.30
30520;DHT22;17300;50.374;8.006;2023-06-14T01:31:00;18.30;42.30
30520;DHT22;17300;50.374;8.006;2023-06-14T01:33:30;18.30;42.50
30520;DHT22;17300;50.374;8.006;2023-06-14T01:35:58;18.30;42.50
30520;DHT22;17300;50.374;8.006;2023-06-14T01:38:27;18.20;42.60
30520;DHT22;17300;50.374;8.006;2023-06-14T01:40:56;18.20;42.90
30520;DHT22;17300;50.374;8.006;2023-06-14T01:43:23;18.20;42.90
30520;DHT22;17300;50.374;8.006;2023-06-14T01:45:51;18.20;43.00
30520;DHT22;17300;50.374;8.006;2023-06-14T01:48:20;18.10;42.90
30520;DHT22;17300;50.374;8.006;2023-06-14T01:50:48;18.10;43.10
30520;DHT22;17300;50.374;8.006;2023-06-14T01:53:14;18.00;43.10
30520;DHT22;17300;50.374;8.006;2023-06-14T01:55:43;18.00;43.20
30520;DHT22;17300;50.374;8.006;2023-06-14T01:58:14;17.90;43.30
30520;DHT22;17300;50.374;8.006;2023-06-14T02:00:41;18.00;43.40
30520;DHT22;17300;50.374;8.006;2023-06-14T02:03:08;17.90;43.50
30520;DHT22;17300;50.374;8.006;2023-06-14T02:05:37;17.90;43.60
30520;DHT22;17300;50.374;8.006;2023-06-14T02:08:04;17.90;43.70
30520;DHT22;17300;50.374;8.006;2023-06-14T02:10:31;17.90;43.80
30520;DHT22;17300;50.374;8.006;2023-06-14T02:12:59;17.90;43.90
30520;DHT22;17300;50.374;8.006;2023-06-14T02:15:25;17.80;44.00
30520;DHT22;17300;50.374;8.006;2023-06-14T02:17:59;17.80;44.00
30520;DHT22;17300;50.374;8.006;2023-06-14T02:20:26;17.80;44.00
30520;DHT22;17300;50.374;8.006;2023-06-14T02:22:54;17.80;44.10
30520;DHT22;17300;50.374;8.006;2023-06-14T02:25:20;17.70;44.10
30520;DHT22;17300;50.374;8.006;2023-06-14T02:27:47;17.70;44.10
30520;DHT22;17300;50.374;8.006;2023-06-14T02:30:15;17.70;44.20
30520;DHT22;17300;50.374;8.006;2023-06-14T02:32:42;17.70;44.30
30520;DHT22;17300;50.374;8.006;2023-06-14T02:35:09;17.70;44.30
30520;DHT22;17300;50.374;8.006;2023-06-14T02:37:35;17.70;44.30
30520;DHT22;17300;50.374;8.006;2023-06-14T02:40:03;17.60;44.30
30520;DHT22;17300;50.374;8.006;2023-06-14T02:42:30;17.60;44.40
30520;DHT22;17300;50.374;8.006;2023-06-14T02:44:56;17.60;44.50
30520;DHT22;17300;50.374;8.006;2023-06-14T02:47:24;17.50;44.50
30520;DHT22;17300;50.374;8.006;2023-06-14T02:49:51;17.50;44.70
30520;DHT22;17300;50.374;8.006;2023-06-14T02:52:18;17.50;44.70
30520;DHT22;17300;50.374;8.006;2023-06-14T02:54:46;17.50;44.80
30520;DHT22;17300;50.374;8.006;2023-06-14T02:57:12;17.40;44.70
30520;DHT22;17300;50.374;8.006;2023-06-14T02:59:39;17.50;44.80
30520;DHT22;17300;50.374;8.006;2023-06-14T03:02:06;17.40;44.70
30520;DHT22;17300;50.374;8.006;2023-06-14T03:04:34;17.40;44.70
30520;DHT22;17300;50.374;8.006;2023-06-14T03:07:02;17.30;44.70
30520;DHT22;17300;50.374;8.006;2023-06-14T03:09:34;17.30;44.70
30520;DHT22;17300;50.374;8.006;2023-06-14T03:12:01;17.30;44.70
30520;DHT22;17300;50.374;8.006;2023-06-14T03:14:28;17.30;44.80
30520;DHT22;17300;50.374;8.006;2023-06-14T03:16:56;17.20;44.90
30520;DHT22;17300;50.374;8.006;2023-06-14T03:19:22;17.20;45.00
30520;DHT22;17300;50.374;8.006;2023-06-14T03:21:50;17.20;45.10
30520;DHT22;17300;50.374;8.006;2023-06-14T03:24:17;17.20;45.40
30520;DHT22;17300;50.374;8.006;2023-06-14T03:26:45;17.10;45.50
30520;DHT22;17300;50.374;8.006;2023-06-14T03:29:12;17.10;45.60
30520;DHT22;17300;50.374;8.006;2023-06-14T03:31:56;17.10;45.60
30520;DHT22;17300;50.374;8.006;2023-06-14T03:34:23;17.10;46.60
30520;DHT22;17300;50.374;8.006;2023-06-14T03:36:52;17.10;45.70
30520;DHT22;17300;50.374;8.006;2023-06-14T03:39:18;17.10;45.90
30520;DHT22;17300;50.374;8.006;2023-06-14T03:41:45;17.00;45.80
30520;DHT22;17300;50.374;8.006;2023-06-14T03:44:15;17.00;45.90
30520;DHT22;17300;50.374;8.006;2023-06-14T03:46:42;17.00;46.10
30520;DHT22;17300;50.374;8.006;2023-06-14T03:49:09;17.00;46.00
30520;DHT22;17300;50.374;8.006;2023-06-14T03:51:37;17.10;46.10
30520;DHT22;17300;50.374;8.006;2023-06-14T03:54:06;17.00;46.10
30520;DHT22;17300;50.374;8.006;2023-06-14T03:56:33;17.00;46.20
30520;DHT22;17300;50.374;8.006;2023-06-14T03:59:00;17.00;46.20
30520;DHT22;17300;50.374;8.006;2023-06-14T04:01:26;17.00;46.30
30520;DHT22;17300;50.374;8.006;2023-06-14T04:03:55;17.00;46.30
30520;DHT22;17300;50.374;8.006;2023-06-14T04:06:23;17.00;46.50
30520;DHT22;17300;50.374;8.006;2023-06-14T04:08:57;17.00;46.50
30520;DHT22;17300;50.374;8.006;2023-06-14T04:11:31;17.10;46.60
30520;DHT22;17300;50.374;8.006;2023-06-14T04:13:58;17.00;46.60
30520;DHT22;17300;50.374;8.006;2023-06-14T04:16:24;17.10;46.70
30520;DHT22;17300;50.374;8.006;2023-06-14T04:18:51;17.10;46.70
30520;DHT22;17300;50.374;8.006;2023-06-14T04:21:18;17.10;46.80
30520;DHT22;17300;50.374;8.006;2023-06-14T04:23:45;17.10;46.90
30520;DHT22;17300;50.374;8.006;2023-06-14T04:26:12;17.10;46.90
30520;DHT22;17300;50.374;8.006;2023-06-14T04:28:41;17.10;46.90
30520;DHT22;17300;50.374;8.006;2023-06-14T04:31:07;17.20;47.10
30520;DHT22;17300;50.374;8.006;2023-06-14T04:33:35;17.20;47.00
30520;DHT22;17300;50.374;8.006;2023-06-14T04:36:09;17.20;47.00
30520;DHT22;17300;50.374;8.006;2023-06-14T04:38:37;17.20;47.30
30520;DHT22;17300;50.374;8.006;2023-06-14T04:41:03;17.30;47.00
30520;DHT22;17300;50.374;8.006;2023-06-14T04:43:31;17.30;47.10
30520;DHT22;17300;50.374;8.006;2023-06-14T04:46:04;17.30;47.20
30520;DHT22;17300;50.374;8.006;2023-06-14T04:48:36;17.30;47.20
30520;DHT22;17300;50.374;8.006;2023-06-14T04:51:05;17.40;47.30
30520;DHT22;17300;50.374;8.006;2023-06-14T04:53:32;17.40;47.30
30520;DHT22;17300;50.374;8.006;2023-06-14T04:55:59;17.40;47.40
30520;DHT22;17300;50.374;8.006;2023-06-14T04:58:26;17.50;47.40
30520;DHT22;17300;50.374;8.006;2023-06-14T05:00:54;17.50;47.50
30520;DHT22;17300;50.374;8.006;2023-06-14T05:03:22;17.60;47.60
30520;DHT22;17300;50.374;8.006;2023-06-14T05:05:49;17.60;47.70
30520;DHT22;17300;50.374;8.006;2023-06-14T05:08:16;17.70;47.70
30520;DHT22;17300;50.374;8.006;2023-06-14T05:10:42;17.70;47.60
30520;DHT22;17300;50.374;8.006;2023-06-14T05:13:09;17.80;47.70
30520;DHT22;17300;50.374;8.006;2023-06-14T05:15:36;17.90;47.80
30520;DHT22;17300;50.374;8.006;2023-06-14T05:18:03;17.90;47.80
30520;DHT22;17300;50.374;8.006;2023-06-14T05:20:31;18.00;48.00
30520;DHT22;17300;50.374;8.006;2023-06-14T05:22:58;18.10;48.10
30520;DHT22;17300;50.374;8.006;2023-06-14T05:25:25;18.20;48.70
30520;DHT22;17300;50.374;8.006;2023-06-14T05:27:53;18.30;48.10
30520;DHT22;17300;50.374;8.006;2023-06-14T05:30:20;18.40;48.40
30520;DHT22;17300;50.374;8.006;2023-06-14T05:32:47;18.60;49.80
30520;DHT22;17300;50.374;8.006;2023-06-14T05:35:13;19.00;51.60
30520;DHT22;17300;50.374;8.006;2023-06-14T05:37:41;19.60;53.30
30520;DHT22;17300;50.374;8.006;2023-06-14T05:40:09;20.40;54.40
30520;DHT22;17300;50.374;8.006;2023-06-14T05:42:35;21.30;55.10
30520;DHT22;17300;50.374;8.006;2023-06-14T05:45:02;22.30;55.30
30520;DHT22;17300;50.374;8.006;2023-06-14T05:47:29;23.40;55.10
30520;DHT22;17300;50.374;8.006;2023-06-14T05:49:56;24.50;54.30
30520;DHT22;17300;50.374;8.006;2023-06-14T05:52:23;25.60;52.90
30520;DHT22;17300;50.374;8.006;2023-06-14T05:54:52;26.70;51.60
30520;DHT22;17300;50.374;8.006;2023-06-14T05:57:18;27.80;49.80
30520;DHT22;17300;50.374;8.006;2023-06-14T05:59:45;28.80;48.30
30520;DHT22;17300;50.374;8.006;2023-06-14T06:02:12;29.80;46.60
30520;DHT22;17300;50.374;8.006;2023-06-14T06:04:38;31.50;35.90
30520;DHT22;17300;50.374;8.006;2023-06-14T06:07:05;31.90;39.20
30520;DHT22;17300;50.374;8.006;2023-06-14T06:09:32;32.50;39.00
30520;DHT22;17300;50.374;8.006;2023-06-14T06:12:00;33.10;38.40
30520;DHT22;17300;50.374;8.006;2023-06-14T06:14:27;33.70;37.20
30520;DHT22;17300;50.374;8.006;2023-06-14T06:16:54;34.30;36.70
30520;DHT22;17300;50.374;8.006;2023-06-14T06:19:20;34.80;35.70
30520;DHT22;17300;50.374;8.006;2023-06-14T06:21:47;35.30;35.10
30520;DHT22;17300;50.374;8.006;2023-06-14T06:24:16;35.90;34.60
30520;DHT22;17300;50.374;8.006;2023-06-14T06:26:43;36.40;34.00
30520;DHT22;17300;50.374;8.006;2023-06-14T06:29:11;37.00;33.20
30520;DHT22;17300;50.374;8.006;2023-06-14T06:31:38;37.60;31.80
30520;DHT22;17300;50.374;8.006;2023-06-14T06:34:04;38.10;31.00
30520;DHT22;17300;50.374;8.006;2023-06-14T06:36:31;38.60;30.00
30520;DHT22;17300;50.374;8.006;2023-06-14T06:38:58;39.00;29.40
30520;DHT22;17300;50.374;8.006;2023-06-14T06:41:25;39.40;28.90
30520;DHT22;17300;50.374;8.006;2023-06-14T06:43:52;39.70;28.10
30520;DHT22;17300;50.374;8.006;2023-06-14T06:46:20;40.00;27.50
30520;DHT22;17300;50.374;8.006;2023-06-14T06:48:46;40.20;26.90
30520;DHT22;17300;50.374;8.006;2023-06-14T06:51:14;40.50;26.70
30520;DHT22;17300;50.374;8.006;2023-06-14T06:53:42;40.70;26.10
30520;DHT22;17300;50.374;8.006;2023-06-14T06:56:09;40.90;25.90
30520;DHT22;17300;50.374;8.006;2023-06-14T06:58:36;41.10;26.30
30520;DHT22;17300;50.374;8.006;2023-06-14T07:01:03;41.40;25.60
30520;DHT22;17300;50.374;8.006;2023-06-14T07:03:31;41.70;25.20
30520;DHT22;17300;50.374;8.006;2023-06-14T07:05:57;42.00;25.00
30520;DHT22;17300;50.374;8.006;2023-06-14T07:08:25;42.30;24.80
30520;DHT22;17300;50.374;8.006;2023-06-14T07:10:52;42.60;24.50
30520;DHT22;17300;50.374;8.006;2023-06-14T07:13:19;43.00;24.40
30520;DHT22;17300;50.374;8.006;2023-06-14T07:15:45;43.30;23.70
30520;DHT22;17300;50.374;8.006;2023-06-14T07:18:15;43.60;23.30
30520;DHT22;17300;50.374;8.006;2023-06-14T07:20:43;43.80;23.10
30520;DHT22;17300;50.374;8.006;2023-06-14T07:23:10;44.10;22.70
30520;DHT22;17300;50.374;8.006;2023-06-14T07:25:37;44.30;22.60
30520;DHT22;17300;50.374;8.006;2023-06-14T07:28:04;44.50;22.20
30520;DHT22;17300;50.374;8.006;2023-06-14T07:30:30;44.80;22.00
30520;DHT22;17300;50.374;8.006;2023-06-14T07:32:57;45.00;22.00
30520;DHT22;17300;50.374;8.006;2023-06-14T07:35:24;45.20;21.50
30520;DHT22;17300;50.374;8.006;2023-06-14T07:37:52;45.30;21.20
30520;DHT22;17300;50.374;8.006;2023-06-14T07:40:18;45.50;21.10
30520;DHT22;17300;50.374;8.006;2023-06-14T07:42:45;45.70;21.20
30520;DHT22;17300;50.374;8.006;2023-06-14T07:45:13;45.90;21.40
30520;DHT22;17300;50.374;8.006;2023-06-14T07:47:40;46.10;20.40
30520;DHT22;17300;50.374;8.006;2023-06-14T07:50:07;46.30;20.60
30520;DHT22;17300;50.374;8.006;2023-06-14T07:52:35;46.60;20.50
30520;DHT22;17300;50.374;8.006;2023-06-14T07:55:03;46.70;20.20
30520;DHT22;17300;50.374;8.006;2023-06-14T07:57:30;46.90;19.90
30520;DHT22;17300;50.374;8.006;2023-06-14T07:59:57;47.10;19.90
30520;DHT22;17300;50.374;8.006;2023-06-14T08:02:24;47.20;19.70
30520;DHT22;17300;50.374;8.006;2023-06-14T08:04:51;47.40;19.30
30520;DHT22;17300;50.374;8.006;2023-06-14T08:07:18;47.50;19.00
30520;DHT22;17300;50.374;8.006;2023-06-14T08:09:44;47.50;19.00
30520;DHT22;17300;50.374;8.006;2023-06-14T08:12:12;47.60;19.10
30520;DHT22;17300;50.374;8.006;2023-06-14T08:14:39;47.70;18.70
30520;DHT22;17300;50.374;8.006;2023-06-14T08:17:06;47.90;18.70
30520;DHT22;17300;50.374;8.006;2023-06-14T08:19:33;47.90;18.60
30520;DHT22;17300;50.374;8.006;2023-06-14T08:22:00;48.00;18.60
30520;DHT22;17300;50.374;8.006;2023-06-14T08:24:26;48.00;18.20
30520;DHT22;17300;50.374;8.006;2023-06-14T08:26:53;48.00;18.10
30520;DHT22;17300;50.374;8.006;2023-06-14T08:29:21;48.00;18.30
30520;DHT22;17300;50.374;8.006;2023-06-14T08:31:48;48.10;18.00
30520;DHT22;17300;50.374;8.006;2023-06-14T08:34:15;48.20;18.10
30520;DHT22;17300;50.374;8.006;2023-06-14T08:36:41;48.30;17.90
30520;DHT22;17300;50.374;8.006;2023-06-14T08:39:08;48.30;17.90
30520;DHT22;17300;50.374;8.006;2023-06-14T08:41:35;48.40;17.60
30520;DHT22;17300;50.374;8.006;2023-06-14T08:44:02;48.40;17.40
30520;DHT22;17300;50.374;8.006;2023-06-14T08:46:32;48.30;17.40
30520;DHT22;17300;50.374;8.006;2023-06-14T08:49:01;48.20;17.50
30520;DHT22;17300;50.374;8.006;2023-06-14T08:51:31;48.20;17.70
30520;DHT22;17300;50.374;8.006;2023-06-14T08:53:59;48.20;17.90
30520;DHT22;17300;50.374;8.006;2023-06-14T08:56:27;48.30;18.20
30520;DHT22;17300;50.374;8.006;2023-06-14T08:58:56;48.60;18.00
30520;DHT22;17300;50.374;8.006;2023-06-14T09:01:23;48.80;17.90
30520;DHT22;17300;50.374;8.006;2023-06-14T09:03:51;49.00;17.60
30520;DHT22;17300;50.374;8.006;2023-06-14T09:06:21;49.10;17.40
30520;DHT22;17300;50.374;8.006;2023-06-14T09:08:49;49.20;17.40
30520;DHT22;17300;50.374;8.006;2023-06-14T09:11:17;49.30;17.30
30520;DHT22;17300;50.374;8.006;2023-06-14T09:13:45;49.40;17.30
30520;DHT22;17300;50.374;8.006;2023-06-14T09:16:11;49.50;17.10
30520;DHT22;17300;50.374;8.006;2023-06-14T09:18:40;49.60;16.80
30520;DHT22;17300;50.374;8.006;2023-06-14T09:21:11;49.70;16.70
30520;DHT22;17300;50.374;8.006;2023-06-14T09:23:39;49.90;16.50
30520;DHT22;17300;50.374;8.006;2023-06-14T09:26:07;50.10;16.50
30520;DHT22;17300;50.374;8.006;2023-06-14T09:28:34;50.10;16.30
30520;DHT22;17300;50.374;8.006;2023-06-14T09:31:01;50.30;16.40
30520;DHT22;17300;50.374;8.006;2023-06-14T09:33:28;50.50;16.40
30520;DHT22;17300;50.374;8.006;2023-06-14T09:35:54;50.60;16.50
30520;DHT22;17300;50.374;8.006;2023-06-14T09:38:24;50.80;16.20
30520;DHT22;17300;50.374;8.006;2023-06-14T09:40:51;51.00;16.30
30520;DHT22;17300;50.374;8.006;2023-06-14T09:43:18;51.10;16.20
30520;DHT22;17300;50.374;8.006;2023-06-14T09:45:48;51.30;16.10
30520;DHT22;17300;50.374;8.006;2023-06-14T09:48:15;51.50;16.10
30520;DHT22;17300;50.374;8.006;2023-06-14T09:50:44;51.60;16.10
30520;DHT22;17300;50.374;8.006;2023-06-14T09:53:11;51.70;15.70
30520;DHT22;17300;50.374;8.006;2023-06-14T09:55:41;51.70;15.60
30520;DHT22;17300;50.374;8.006;2023-06-14T09:58:09;51.70;15.20
30520;DHT22;17300;50.374;8.006;2023-06-14T10:00:39;51.60;14.90
30520;DHT22;17300;50.374;8.006;2023-06-14T10:03:10;51.40;14.90
30520;DHT22;17300;50.374;8.006;2023-06-14T10:05:38;51.10;15.40
30520;DHT22;17300;50.374;8.006;2023-06-14T10:08:09;51.00;15.50
30520;DHT22;17300;50.374;8.006;2023-06-14T10:10:39;50.90;15.30
30520;DHT22;17300;50.374;8.006;2023-06-14T10:13:07;50.90;15.40
30520;DHT22;17300;50.374;8.006;2023-06-14T10:15:38;50.70;15.20
30520;DHT22;17300;50.374;8.006;2023-06-14T10:18:13;50.70;15.20
30520;DHT22;17300;50.374;8.006;2023-06-14T10:20:51;50.70;15.90
30520;DHT22;17300;50.374;8.006;2023-06-14T10:23:22;50.60;15.20
30520;DHT22;17300;50.374;8.006;2023-06-14T10:25:54;50.50;15.20
30520;DHT22;17300;50.374;8.006;2023-06-14T10:28:22;50.60;15.40
30520;DHT22;17300;50.374;8.006;2023-06-14T10:31:05;50.50;15.10
30520;DHT22;17300;50.374;8.006;2023-06-14T10:33:33;50.40;15.10
30520;DHT22;17300;50.374;8.006;2023-06-14T10:36:25;50.20;15.30
30520;DHT22;17300;50.374;8.006;2023-06-14T10:39:00;50.10;15.40
30520;DHT22;17300;50.374;8.006;2023-06-14T10:41:29;50.00;15.00
30520;DHT22;17300;50.374;8.006;2023-06-14T10:44:31;49.90;15.10
30520;DHT22;17300;50.374;8.006;2023-06-14T10:46:59;49.80;15.60
30520;DHT22;17300;50.374;8.006;2023-06-14T10:49:41;49.80;15.40
30520;DHT22;17300;50.374;8.006;2023-06-14T10:52:09;49.80;15.80
30520;DHT22;17300;50.374;8.006;2023-06-14T10:55:05;49.80;15.70
30520;DHT22;17300;50.374;8.006;2023-06-14T10:57:36;49.80;16.10
30520;DHT22;17300;50.374;8.006;2023-06-14T11:00:05;49.80;15.70
30520;DHT22;17300;50.374;8.006;2023-06-14T11:02:51;49.70;15.50
30520;DHT22;17300;50.374;8.006;2023-06-14T11:05:24;49.60;15.20
30520;DHT22;17300;50.374;8.006;2023-06-14T11:08:03;49.30;15.30
30520;DHT22;17300;50.374;8.006;2023-06-14T11:10:37;48.90;14.80
30520;DHT22;17300;50.374;8.006;2023-06-14T11:13:06;48.30;14.60
30520;DHT22;17300;50.374;8.006;2023-06-14T11:15:35;47.60;15.00
30520;DHT22;17300;50.374;8.006;2023-06-14T11:18:02;46.90;15.00
30520;DHT22;17300;50.374;8.006;2023-06-14T11:20:31;46.20;15.10
30520;DHT22;17300;50.374;8.006;2023-06-14T11:22:58;45.60;16.00
30520;DHT22;17300;50.374;8.006;2023-06-14T11:25:25;45.00;15.60
30520;DHT22;17300;50.374;8.006;2023-06-14T11:27:54;44.50;15.70
30520;DHT22;17300;50.374;8.006;2023-06-14T11:30:22;43.90;15.70
30520;DHT22;17300;50.374;8.006;2023-06-14T11:32:51;43.10;15.70
30520;DHT22;17300;50.374;8.006;2023-06-14T11:35:20;42.40;16.20
30520;DHT22;17300;50.374;8.006;2023-06-14T11:37:49;41.60;16.20
30520;DHT22;17300;50.374;8.006;2023-06-14T11:40:17;40.90;16.40
30520;DHT22;17300;50.374;8.006;2023-06-14T11:42:44;40.10;16.60
30520;DHT22;17300;50.374;8.006;2023-06-14T11:45:11;39.40;17.00
30520;DHT22;17300;50.374;8.006;2023-06-14T11:47:39;38.80;17.50
30520;DHT22;17300;50.374;8.006;2023-06-14T11:50:07;38.30;18.10
30520;DHT22;17300;50.374;8.006;2023-06-14T11:52:35;38.00;18.20
30520;DHT22;17300;50.374;8.006;2023-06-14T11:55:03;37.70;18.60
30520;DHT22;17300;50.374;8.006;2023-06-14T11:57:34;37.50;18.80
30520;DHT22;17300;50.374;8.006;2023-06-14T12:00:03;37.20;18.80
30520;DHT22;17300;50.374;8.006;2023-06-14T12:02:33;36.80;19.00
30520;DHT22;17300;50.374;8.006;2023-06-14T12:05:06;36.50;18.90
30520;DHT22;17300;50.374;8.006;2023-06-14T12:07:35;36.10;19.10
30520;DHT22;17300;50.374;8.006;2023-06-14T12:10:07;35.90;19.50
30520;DHT22;17300;50.374;8.006;2023-06-14T12:12:35;35.60;19.90
30520;DHT22;17300;50.374;8.006;2023-06-14T12:15:04;35.30;19.50
30520;DHT22;17300;50.374;8.006;2023-06-14T12:17:32;35.00;19.80
30520;DHT22;17300;50.374;8.006;2023-06-14T12:20:04;34.60;20.00
30520;DHT22;17300;50.374;8.006;2023-06-14T12:22:33;34.40;20.10
30520;DHT22;17300;50.374;8.006;2023-06-14T12:24:59;34.20;20.50
30520;DHT22;17300;50.374;8.006;2023-06-14T12:27:26;34.00;20.60
30520;DHT22;17300;50.374;8.006;2023-06-14T12:29:59;33.80;20.60
30520;DHT22;17300;50.374;8.006;2023-06-14T12:32:26;33.70;20.60
30520;DHT22;17300;50.374;8.006;2023-06-14T12:34:53;33.60;20.50
30520;DHT22;17300;50.374;8.006;2023-06-14T12:37:19;33.50;20.60
30520;DHT22;17300;50.374;8.006;2023-06-14T12:39:47;33.30;20.50
30520;DHT22;17300;50.374;8.006;2023-06-14T12:42:16;33.20;20.80
30520;DHT22;17300;50.374;8.006;2023-06-14T12:44:43;33.10;21.20
30520;DHT22;17300;50.374;8.006;2023-06-14T12:47:09;33.10;21.30
30520;DHT22;17300;50.374;8.006;2023-06-14T12:49:36;33.00;21.30
30520;DHT22;17300;50.374;8.006;2023-06-14T12:52:03;33.00;21.20
30520;DHT22;17300;50.374;8.006;2023-06-14T12:54:30;32.90;21.30
30520;DHT22;17300;50.374;8.006;2023-06-14T12:56:58;32.80;21.40
30520;DHT22;17300;50.374;8.006;2023-06-14T12:59:25;32.60;21.60
30520;DHT22;17300;50.374;8.006;2023-06-14T13:01:58;32.50;22.00
30520;DHT22;17300;50.374;8.006;2023-06-14T13:04:25;32.40;22.10
30520;DHT22;17300;50.374;8.006;2023-06-14T13:06:52;32.40;22.50
30520;DHT22;17300;50.374;8.006;2023-06-14T13:09:18;32.40;22.90
30520;DHT22;17300;50.374;8.006;2023-06-14T13:11:45;32.40;22.90
30520;DHT22;17300;50.374;8.006;2023-06-14T13:14:13;32.40;22.70
30520;DHT22;17300;50.374;8.006;2023-06-14T13:16:40;32.40;22.60
30520;DHT22;17300;50.374;8.006;2023-06-14T13:19:07;32.40;22.60
30520;DHT22;17300;50.374;8.006;2023-06-14T13:21:34;32.40;22.50
30520;DHT22;17300;50.374;8.006;2023-06-14T13:24:00;32.40;22.50
30520;DHT22;17300;50.374;8.006;2023-06-14T13:26:27;32.20;22.50
30520;DHT22;17300;50.374;8.006;2023-06-14T13:28:53;32.20;23.00
30520;DHT22;17300;50.374;8.006;2023-06-14T13:31:21;32.10;22.90
30520;DHT22;17300;50.374;8.006;2023-06-14T13:33:48;32.00;22.80
30520;DHT22;17300;50.374;8.006;2023-06-14T13:36:15;31.90;22.70
30520;DHT22;17300;50.374;8.006;2023-06-14T13:38:41;31.80;22.90
30520;DHT22;17300;50.374;8.006;2023-06-14T13:41:08;31.80;23.20
30520;DHT22;17300;50.374;8.006;2023-06-14T13:43:35;31.70;23.20
30520;DHT22;17300;50.374;8.006;2023-06-14T13:46:01;31.70;23.00
30520;DHT22;17300;50.374;8.006;2023-06-14T13:48:30;31.50;22.80
30520;DHT22;17300;50.374;8.006;2023-06-14T13:50:59;31.50;23.30
30520;DHT22;17300;50.374;8.006;2023-06-14T13:53:26;31.30;23.60
30520;DHT22;17300;50.374;8.006;2023-06-14T13:55:53;31.30;23.50
30520;DHT22;17300;50.374;8.006;2023-06-14T13:58:19;31.20;23.50
30520;DHT22;17300;50.374;8.006;2023-06-14T14:00:46;31.20;23.50
30520;DHT22;17300;50.374;8.006;2023-06-14T14:03:13;31.10;23.50
30520;DHT22;17300;50.374;8.006;2023-06-14T14:05:41;31.10;23.60
30520;DHT22;17300;50.374;8.006;2023-06-14T14:08:07;31.00;23.70
30520;DHT22;17300;50.374;8.006;2023-06-14T14:10:34;31.00;24.00
30520;DHT22;17300;50.374;8.006;2023-06-14T14:13:01;31.00;24.00
30520;DHT22;17300;50.374;8.006;2023-06-14T14:15:27;31.00;24.30
30520;DHT22;17300;50.374;8.006;2023-06-14T14:17:55;31.00;24.10
30520;DHT22;17300;50.374;8.006;2023-06-14T14:20:23;31.00;24.20
30520;DHT22;17300;50.374;8.006;2023-06-14T14:22:51;31.00;24.10
30520;DHT22;17300;50.374;8.006;2023-06-14T14:25:18;31.00;24.10
30520;DHT22;17300;50.374;8.006;2023-06-14T14:27:44;31.00;24.10
30520;DHT22;17300;50.374;8.006;2023-06-14T14:30:12;30.90;23.90
30520;DHT22;17300;50.374;8.006;2023-06-14T14:32:39;30.80;24.80
30520;DHT22;17300;50.374;8.006;2023-06-14T14:35:07;30.80;24.50
30520;DHT22;17300;50.374;8.006;2023-06-14T14:37:34;30.70;24.40
30520;DHT22;17300;50.374;8.006;2023-06-14T14:40:02;30.60;24.60
30520;DHT22;17300;50.374;8.006;2023-06-14T14:42:29;30.50;24.50
30520;DHT22;17300;50.374;8.006;2023-06-14T14:44:55;30.50;24.50
30520;DHT22;17300;50.374;8.006;2023-06-14T14:47:22;30.40;24.90
30520;DHT22;17300;50.374;8.006;2023-06-14T14:49:49;30.40;24.90
30520;DHT22;17300;50.374;8.006;2023-06-14T14:52:16;30.40;25.00
30520;DHT22;17300;50.374;8.006;2023-06-14T14:54:43;30.30;24.80
30520;DHT22;17300;50.374;8.006;2023-06-14T14:57:11;30.30;24.90
30520;DHT22;17300;50.374;8.006;2023-06-14T14:59:37;30.30;25.00
30520;DHT22;17300;50.374;8.006;2023-06-14T15:02:05;30.30;25.10
30520;DHT22;17300;50.374;8.006;2023-06-14T15:04:31;30.20;24.90
30520;DHT22;17300;50.374;8.006;2023-06-14T15:06:58;30.10;24.80
30520;DHT22;17300;50.374;8.006;2023-06-14T15:09:25;30.00;25.10
30520;DHT22;17300;50.374;8.006;2023-06-14T15:11:51;29.90;25.10
30520;DHT22;17300;50.374;8.006;2023-06-14T15:14:19;29.80;25.20
30520;DHT22;17300;50.374;8.006;2023-06-14T15:16:46;29.70;25.40
30520;DHT22;17300;50.374;8.006;2023-06-14T15:19:12;29.60;25.40
30520;DHT22;17300;50.374;8.006;2023-06-14T15:21:39;29.50;25.30
30520;DHT22;17300;50.374;8.006;2023-06-14T15:24:07;29.40;25.30
30520;DHT22;17300;50.374;8.006;2023-06-14T15:26:33;29.30;25.20
30520;DHT22;17300;50.374;8.006;2023-06-14T15:29:00;29.30;25.50
30520;DHT22;17300;50.374;8.006;2023-06-14T15:31:28;29.10;25.60
30520;DHT22;17300;50.374;8.006;2023-06-14T15:33:55;29.00;25.70
30520;DHT22;17300;50.374;8.006;2023-06-14T15:36:22;29.00;25.70